FW6191 Weather Reports


Display with metric or nautical units.
time (UTC)temp
F
wind
direction
speed
MPH
gust
MPH
rain 1hr
in
rain 24hr
in
rain mn
in
humidity
%
barometer
mb
20211207180605 50 216 6.0 10.0 0.00 1.27 1.27 95 1001.7
20211207180108 50 219 7.0 12.0 0.02 1.27 1.27 95 1001.5
20211207173605 50 197 8.0 9.0 0.10 1.28 1.27 96 1001.8
20211207173108 50 208 9.0 14.0 0.12 1.28 1.27 96 1002.4
20211207170607 50 196 13.0 16.0 0.22 1.31 1.27 97 1002.5
20211207170106 50 203 14.0 18.0 0.21 1.29 1.25 96 1002.6
20211207163609 49 180 10.0 14.0 0.38 1.24 1.17 97 1001.9
20211207163109 49 194 10.0 12.0 0.45 1.23 1.15 96 1001.9
20211207160611 49 193 10.0 12.0 0.48 1.18 1.06 95 1002.0
20211207160109 49 200 9.0 12.0 0.48 1.18 1.05 96 1001.9
20211207153608 48 220 7.0 14.0 0.38 0.98 0.83 97 1002.5
20211207153106 48 233 8.0 17.0 0.32 0.91 0.76 97 1002.3
20211207150608 47 176 12.0 14.0 0.20 0.73 0.58 96 1000.9
20211207150107 47 193 10.0 18.0 0.20 0.73 0.57 97 1001.2
20211207143609 47 146 10.0 16.0 0.10 0.61 0.45 96 1001.3
20211207143107 47 132 10.0 12.0 0.12 0.60 0.44 96 1001.6
20211207140610 46 198 12.0 18.0 0.14 0.55 0.39 96 1002.3
20211207140106 46 171 10.0 21.0 0.16 0.55 0.39 95 1002.3
20211207133610 46 155 12.0 14.0 0.20 0.53 0.36 96 1003.0
20211207133108 46 99 12.0 18.0 0.20 0.52 0.35 95 1003.0
20211207130609 46 97 12.0 21.0 0.19 0.42 0.25 95 1003.6
20211207130107 46 146 12.0 17.0 0.19 0.40 0.23 95 1003.6
20211207123612 46 175 8.0 12.0 0.16 0.33 0.16 95 1005.9
20211207123108 46 143 9.0 18.0 0.15 0.32 0.15 95 1006.0
20211207120610 47 177 10.0 15.0 0.06 0.23 0.06 94 1007.5
20211207120109 47 119 10.0 16.0 0.04 0.21 0.04 94 1007.7
20211207113610 47 146 12.0 17.0 0.00 0.17 0.00 93 1008.7
20211207113110 47 183 9.0 23.0 0.00 0.17 0.00 93 1008.9
20211207110611 46 142 7.0 5.0 0.00 0.17 0.00 95 1008.6
20211207110109 46 118 8.0 13.0 0.00 0.17 0.00 95 1008.6
20211207103610 46 115 8.0 9.0 0.00 0.17 0.00 95 1009.2
20211207103109 45 113 7.0 15.0 0.00 0.17 0.00 96 1009.4
20211207100611 44 123 9.0 15.0 0.00 0.17 0.00 96 1010.0
20211207100109 44 142 8.0 15.0 0.00 0.17 0.00 96 1010.2
20211207093611 44 0 5.0 5.0 0.00 0.17 0.00 98 1011.2
20211207093119 44 0 5.0 5.0 0.00 0.17 0.00 98 1011.3
20211207090604 43 132 6.0 9.0 0.00 0.17 0.00 98 1011.7
20211207090105 43 163 6.0 9.0 0.00 0.17 0.00 98 1012.0
20211207083603 43 167 5.0 5.0 0.00 0.17 0.00 98 1012.7
20211207083105 43 182 5.0 10.0 0.00 0.17 0.00 98 1013.0
20211207080604 43 152 5.0 9.0 0.00 0.17 0.00 98 1013.4
20211207080114 43 127 5.0 9.0 0.00 0.17 0.00 98 1013.3
20211207073605 43 106 5.0 7.0 0.00 0.17 0.00 97 1014.0
20211207073105 43 120 5.0 9.0 0.00 0.17 0.00 97 1014.1
20211207070604 43 178 3.0 5.0 0.00 0.17 0.00 96 1014.7
20211207070106 43 78 3.0 8.0 0.00 0.17 0.00 96 1014.7
20211207063603 42 139 3.0 5.0 0.00 0.17 0.00 97 1015.1
20211207063103 43 99 3.0 8.0 0.00 0.17 0.00 96 1015.2
20211207060605 43 123 3.0 6.0 0.00 0.17 0.00 96 1015.4
20211207060104 43 129 3.0 8.0 0.00 0.17 0.00 96 1015.7
20211207053606 43 147 3.0 5.0 0.00 0.17 0.00 96 1016.2
20211207053106 43 107 5.0 8.0 0.00 0.17 0.00 96 1016.0
20211207050603 43 125 3.0 5.0 0.00 0.17 0.00 96 1016.7
20211207050107 43 111 3.0 8.0 0.00 0.17 0.00 96 1016.8
20211207043604 43 121 3.0 5.0 0.00 0.17 0.00 95 1017.3
20211207043111 43 133 3.0 6.0 0.00 0.17 0.00 95 1017.4
20211207040605 43 156 3.0 6.0 0.00 0.17 0.00 95 1017.7
20211207040107 43 107 3.0 7.0 0.00 0.17 0.00 95 1017.9
20211207033604 43 125 2.0 3.0 0.00 0.17 0.00 94 1017.9
20211207033107 43 132 2.0 5.0 0.00 0.17 0.00 94 1018.0
20211207030604 43 106 2.0 5.0 0.00 0.17 0.00 95 1018.5
20211207030107 43 145 2.0 5.0 0.00 0.17 0.00 95 1018.6
20211207023604 42 122 2.0 2.0 0.00 0.17 0.00 95 1019.1
20211207023107 42 139 2.0 5.0 0.00 0.17 0.00 95 1019.0
20211207020604 42 117 2.0 3.0 0.00 0.17 0.00 96 1019.4
20211207020107 42 140 2.0 5.0 0.00 0.17 0.00 95 1019.4
20211207013605 42 189 3.0 2.0 0.00 0.17 0.00 95 1019.4
20211207013106 42 151 2.0 5.0 0.00 0.17 0.00 95 1019.4
20211207010605 42 150 1.0 3.0 0.00 0.17 0.00 95 1019.6
20211207010107 42 157 2.0 2.0 0.00 0.17 0.00 95 1019.8
20211207003604 43 151 1.0 2.0 0.00 0.17 0.00 95 1020.0
20211207003107 43 169 2.0 2.0 0.00 0.17 0.00 94 1020.0
20211207000605 44 225 1.0 2.0 0.00 0.17 0.00 93 1019.9
20211207000107 44 228 1.0 3.0 0.00 0.17 0.00 93 1020.0
20211206233604 44 224 1.0 2.0 0.00 0.17 0.00 93 1020.1
20211206233107 44 226 1.0 3.0 0.00 0.17 0.00 92 1020.0
20211206230605 45 250 2.0 2.0 0.00 0.17 0.00 91 1019.8
20211206230108 46 264 2.0 5.0 0.00 0.17 0.00 90 1019.8
20211206223604 46 284 2.0 3.0 0.00 0.17 0.17 90 1019.3
20211206223107 46 285 2.0 5.0 0.00 0.17 0.17 90 1019.3
20211206220605 46 284 3.0 3.0 0.00 0.17 0.17 91 1018.9
20211206220107 46 308 3.0 6.0 0.00 0.17 0.17 90 1018.8
20211206213607 46 279 3.0 3.0 0.00 0.17 0.17 91 1018.5
20211206213107 46 280 3.0 6.0 0.00 0.17 0.17 91 1018.5
20211206210605 47 278 3.0 5.0 0.00 0.17 0.17 90 1018.3
20211206210108 47 297 3.0 7.0 0.00 0.17 0.17 90 1018.1
20211206203605 46 271 3.0 6.0 0.00 0.17 0.17 92 1017.7
20211206203109 46 282 3.0 5.0 0.00 0.17 0.17 93 1017.5
20211206200608 46 284 2.0 3.0 0.00 0.17 0.17 94 1017.3
20211206200106 46 289 2.0 5.0 0.00 0.17 0.17 94 1017.3
20211206193608 47 294 3.0 5.0 0.00 0.17 0.17 93 1017.0
20211206193107 47 313 5.0 7.0 0.00 0.17 0.17 93 1016.9
20211206190607 47 308 5.0 9.0 0.00 0.17 0.17 94 1016.5
20211206190106 47 275 5.0 9.0 0.00 0.17 0.17 95 1016.4
20211206183608 48 286 5.0 6.0 0.00 0.17 0.17 96 1015.9
20211206183106 48 280 5.0 12.0 0.00 0.17 0.17 96 1015.8